Data for 06/28/2010

Time Sea-Level Adjusted Pressure Absolute Pressure Temperature Relative Humidity Dew Point   
(mb) (inHg) (mb) (inHg) (C) (F) (%) (C) (F)
00:05 1018 30.06 847 25.01 16.5 61.6 51 6.4 43.4
00:10 1018 30.06 847 25.01 16 60.8 52 6.2 43.2
00:15 1018 30.06 847 25.01 16 60.8 50 5.6 42.1
00:20 1018 30.06 848 25.04 16.2 61.1 50 5.9 42.7
00:25 1018 30.06 848 25.04 16 60.9 50 5.6 42.2
00:30 1018 30.06 848 25.04 16 60.8 53 6.4 43.6
00:35 1018 30.06 848 25.04 16 60.7 51 6.1 42.9
00:40 1018 30.06 848 25.04 15.9 60.6 53 6.5 43.7
00:45 1018 30.06 848 25.04 15.9 60.6 50 5.5 41.9
00:50 1018 30.06 848 25.04 15.9 60.6 53 6.3 43.3
00:55 1018 30.06 848 25.04 15.8 60.5 53 6.3 43.3
01:00 1018 30.06 848 25.04 15.9 60.6 50 5.5 41.8
01:05 1018 30.06 848 25.04 15.8 60.5 50 5.7 42.2
01:10 1018 30.06 848 25.04 15.8 60.5 51 5.7 42.2
01:15 1019 30.09 848 25.04 15.9 60.6 51 5.8 42.5
01:20 1018 30.06 848 25.04 16 60.7 51 5.9 42.7
01:25 1019 30.09 848 25.04 15.9 60.5 52 6.1 43
01:30 1019 30.09 848 25.04 15.6 60.2 52 5.9 42.6
01:35 1019 30.09 848 25.04 15.5 60 51 5.6 42
01:40 1019 30.09 848 25.04 15.5 59.8 52 5.6 42.2
01:45 1019 30.09 848 25.04 15.6 60 51 5.6 42.1
01:50 1019 30.09 848 25.04 15.7 60.2 51 5.7 42.2
01:55 1019 30.09 848 25.04 15.6 60.1 52 6 42.7
02:00 1019 30.09 848 25.04 15.5 59.8 53 5.9 42.6
02:05 1019 30.09 848 25.04 15.4 59.7 52 5.6 42.1
02:10 1019 30.09 848 25.04 15.4 59.7 52 5.8 42.4
02:15 1019 30.09 848 25.04 15.4 59.7 52 5.8 42.5
02:20 1019 30.09 848 25.04 15.4 59.7 53 5.9 42.7
02:25 1019 30.09 848 25.04 15.1 59.2 54 6 42.9
02:30 1019 30.09 848 25.04 14.8 58.6 59 6.9 44.4
02:35 1019 30.09 848 25.04 14.2 57.6 62 7 44.6
02:40 1019 30.09 848 25.04 14 57.2 62 6.9 44.4
02:45 1019 30.09 848 25.04 14 57.1 61 6.5 43.8
02:50 1019 30.09 848 25.04 14.1 57.3 62 6.9 44.4
02:55 1019 30.09 848 25.04 14.3 57.7 59 6.4 43.4
03:00 1019 30.09 848 25.04 14.6 58.2 57 6.3 43.3
03:05 1019 30.09 848 25.04 14.7 58.5 56 6.1 42.9
03:10 1019 30.09 848 25.04 14.5 58.1 60 7 44.5
03:15 1019 30.09 848 25.04 14.1 57.3 59 6.2 43.1
03:20 1019 30.09 848 25.04 14.4 57.9 60 6.7 44.1
03:25 1019 30.09 848 25.04 14.1 57.4 61 6.8 44.2
03:30 1019 30.09 848 25.04 13.7 56.7 63 6.8 44.2
03:35 1019 30.09 848 25.04 13.5 56.4 65 7.1 44.8
03:40 1019 30.09 848 25.04 13.4 56.1 63 6.5 43.7
03:45 1019 30.09 848 25.04 13.7 56.6 62 6.5 43.7
03:50 1019 30.09 848 25.04 13.9 57.1 59 6.2 43.1
03:55 1019 30.09 848 25.04 13.9 56.9 60 6.4 43.4
04:00 1019 30.09 848 25.04 13.7 56.6 60 6.1 43
04:05 1019 30.09 848 25.04 13.5 56.4 61 6.2 43.1
04:10 1019 30.09 848 25.04 13.4 56.1 61 6.2 43.1
04:15 1019 30.09 848 25.04 13.3 56 61 6.1 42.9
04:20 1019 30.09 848 25.04 13.4 56 61 6 42.9
04:25 1019 30.09 848 25.04 13.4 56.1 62 6.3 43.3
04:30 1019 30.09 848 25.04 13.1 55.5 65 6.6 43.9
04:35 1019 30.09 848 25.04 12.8 55.1 65 6.4 43.6
04:40 1019 30.09 849 25.07 12.9 55.1 65 6.5 43.8
04:45 1019 30.09 849 25.07 12.7 54.9 66 6.6 43.9
04:50 1019 30.09 849 25.07 12.6 54.7 66 6.4 43.5
04:55 1020 30.12 849 25.07 12.9 55.3 64 6.4 43.6
05:00 1020 30.12 849 25.07 13.1 55.5 64 6.5 43.8
05:05 1020 30.12 849 25.07 13.1 55.5 64 6.6 43.8
05:10 1020 30.12 849 25.07 13.1 55.5 64 6.5 43.6
05:15 1020 30.12 849 25.07 13.1 55.6 64 6.6 43.9
05:20 1020 30.12 849 25.07 12.9 55.2 67 6.9 44.5
05:25 1020 30.12 849 25.07 12.4 54.2 69 6.9 44.4
05:30 1020 30.12 849 25.07 12 53.7 69 6.7 44
05:35 1020 30.12 849 25.07 12.2 53.9 67 6.2 43.2
05:40 1020 30.12 849 25.07 12.7 54.8 66 6.6 43.8
05:45 1020 30.12 849 25.07 12.5 54.6 65 6.3 43.3
05:50 1020 30.12 849 25.07 12.7 54.8 65 6.2 43.2
05:55 1020 30.12 849 25.07 12.8 55.1 64 6.3 43.3
06:00 1020 30.12 849 25.07 12.9 55.2 65 6.5 43.7
06:05 1020 30.12 849 25.07 12.7 54.8 65 6.4 43.6
06:10 1020 30.12 849 25.07 12.7 54.9 65 6.3 43.3
06:15 1020 30.12 849 25.07 12.8 55.1 65 6.5 43.6
06:20 1020 30.12 849 25.07 12.8 55.1 65 6.5 43.6
06:25 1020 30.12 849 25.07 12.9 55.2 65 6.6 43.8
06:30 1020 30.12 849 25.07 12.9 55.3 65 6.7 44
06:35 1020 30.12 849 25.07 12.9 55.3 64 6.5 43.6
06:40 1020 30.12 850 25.1 13 55.4 65 6.7 44
06:45 1020 30.12 850 25.1 12.9 55.3 65 6.5 43.7
06:50 1020 30.12 850 25.1 13.2 55.7 64 6.5 43.7
06:55 1020 30.12 850 25.1 13.2 55.8 65 6.8 44.2
07:00 1020 30.12 850 25.1 13.3 55.9 64 6.7 44.1
07:05 1020 30.12 850 25.1 13.5 56.2 63 6.7 44.1
07:10 1020 30.12 850 25.1 13.6 56.4 64 7 44.6
07:15 1020 30.12 850 25.1 13.6 56.6 65 7.3 45.2
07:20 1020 30.12 850 25.1 13.8 56.9 65 7.4 45.3
07:25 1021 30.15 850 25.1 13.8 56.9 63 7.1 44.7
07:30 1021 30.15 850 25.1 14.2 57.5 63 7.3 45.2
07:35 1021 30.15 850 25.1 14.4 58 62 7.4 45.3
07:40 1021 30.15 850 25.1 14.8 58.7 61 7.5 45.4
07:45 1021 30.15 850 25.1 15.7 60.2 59 7.7 45.8
07:50 1021 30.15 850 25.1 16 60.7 58 7.8 46
07:55 1021 30.15 850 25.1 16.3 61.4 53 7 44.5
08:00 1021 30.15 850 25.1 17 62.6 52 7.3 45.2
08:05 1021 30.15 850 25.1 17.3 63.1 54 8 46.3
08:10 1021 30.15 850 25.1 17.2 62.9 54 7.9 46.3
08:15 1021 30.15 850 25.1 17.4 63.2 52 7.6 45.8
08:20 1021 30.15 850 25.1 17.9 64.3 51 7.9 46.2
08:25 1021 30.15 850 25.1 18.6 65.5 50 8.1 46.6
08:30 1021 30.15 850 25.1 19 66.1 46 7.1 44.8
08:35 1021 30.15 850 25.1 19.3 66.8 45 7.3 45.1
08:40 1021 30.15 850 25.1 19.8 67.7 44 7.5 45.5
08:45 1021 30.15 850 25.1 20.3 68.6 43 7.5 45.5
08:50 1021 30.15 850 25.1 19.8 67.6 45 7.7 45.8
08:55 1021 30.15 850 25.1 19.6 67.2 43 6.9 44.5
09:00 1021 30.15 850 25.1 19.7 67.5 45 7.5 45.4
09:05 1021 30.15 850 25.1 19.6 67.3 45 7.6 45.6
09:10 1021 30.15 850 25.1 19.1 66.5 46 7.4 45.4
09:15 1021 30.15 850 25.1 19.4 66.9 45 7.4 45.3
09:20 1021 30.15 850 25.1 19.9 67.8 45 7.7 45.8
09:25 1021 30.15 850 25.1 20.2 68.4 44 7.8 46
09:30 1021 30.15 850 25.1 20.3 68.6 45 8 46.5
09:35 1021 30.15 850 25.1 21 69.7 43 8 46.5
09:40 1021 30.15 850 25.1 21.5 70.7 42 8.2 46.8
09:45 1021 30.15 850 25.1 21.2 70.1 39 6.8 44.2
09:50 1021 30.15 850 25.1 20.6 69.1 41 7.1 44.9
09:55 1021 30.15 850 25.1 20.6 69.1 40 6.7 44
10:00 1021 30.15 850 25.1 21.4 70.6 39 7 44.6
10:05 1021 30.15 850 25.1 22 71.5 39 7.4 45.3
10:10 1021 30.15 850 25.1 22 71.7 37 6.9 44.5
10:15 1021 30.15 850 25.1 22.3 72.1 38 7.4 45.4
10:20 1021 30.15 850 25.1 22.2 72 37 7.1 44.8
10:25 1021 30.15 850 25.1 22.3 72.1 36 6.8 44.2
10:30 1021 30.15 850 25.1 22.7 72.8 35 6.6 43.8
10:35 1021 30.15 850 25.1 23.1 73.5 33 6 42.9
10:40 1021 30.15 850 25.1 22.9 73.2 34 6.5 43.7
10:45 1021 30.15 850 25.1 23.3 74 32 6 42.8
10:50 1021 30.15 850 25.1 22.8 73 33 5.9 42.6
10:55 1021 30.15 850 25.1 23.5 74.3 31 5.6 42
11:00 1021 30.15 850 25.1 23.5 74.3 32 6.1 43
11:05 1021 30.15 850 25.1 23.2 73.7 32 5.7 42.2
11:10 1021 30.15 850 25.1 23.9 75 32 6.2 43.1
11:15 1021 30.15 850 25.1 23.6 74.5 31 5.9 42.5
11:20 1021 30.15 850 25.1 23.2 73.7 33 6.3 43.3
11:25 1021 30.15 850 25.1 23.4 74.2 33 6.6 43.9
11:30 1021 30.15 850 25.1 23.8 74.9 34 7.1 44.7
11:35 1021 30.15 850 25.1 24.2 75.6 31 6.4 43.6
11:40 1021 30.15 850 25.1 24.5 76.1 33 7.3 45.1
11:45 1021 30.15 850 25.1 24.9 76.8 32 7.3 45.2
11:50 1021 30.15 850 25.1 24.6 76.3 33 7.3 45.1
11:55 1021 30.15 850 25.1 23.7 74.6 34 7.1 44.8
12:00 1021 30.15 850 25.1 23.3 73.9 33 6.5 43.8
12:05 1021 30.15 850 25.1 23.6 74.4 35 7.4 45.3
12:10 1021 30.15 850 25.1 24.6 76.3 31 6.4 43.6
12:15 1021 30.15 850 25.1 24.9 76.7 31 6.6 43.9
12:20 1021 30.15 850 25.1 24.7 76.4 33 7.7 45.9
12:25 1021 30.15 850 25.1 24.6 76.3 32 7.1 44.8
12:30 1020 30.12 850 25.1 24.5 76 31 6.6 43.9
12:35 1020 30.12 850 25.1 24.6 76.2 31 6.4 43.6
12:40 1020 30.12 850 25.1 25.5 78 30 7.1 44.8
12:45 1020 30.12 850 25.1 25.6 78.2 31 7.6 45.6
12:50 1020 30.12 850 25.1 26.2 79.2 29 7.3 45.1
12:55 1020 30.12 850 25.1 26.4 79.5 29 7.2 45
13:00 1020 30.12 850 25.1 26.8 80.2 29 7.3 45.2
13:05 1020 30.12 850 25.1 26.8 80.2 27 6.5 43.8
13:10 1020 30.12 849 25.07 26.5 79.6 28 6.7 44.1
13:15 1020 30.12 849 25.07 25.9 78.6 28 6.3 43.3
13:20 1020 30.12 849 25.07 26.5 79.7 28 6.6 43.8
13:25 1020 30.12 849 25.07 25.2 77.4 30 6.6 43.9
13:30 1020 30.12 849 25.07 25.7 78.2 29 6.7 44
13:35 1020 30.12 849 25.07 26.6 79.9 27 6.5 43.7
13:40 1020 30.12 849 25.07 27.3 81.2 24 5.3 41.6
13:45 1020 30.12 849 25.07 27.5 81.6 27 7.1 44.8
13:50 1020 30.12 849 25.07 26.9 80.3 26 5.9 42.6
13:55 1020 30.12 849 25.07 27.8 82.1 25 6.4 43.5
14:00 1020 30.12 849 25.07 27.9 82.3 24 6 42.8
14:05 1020 30.12 849 25.07 27.1 80.8 25 5.7 42.3
14:10 1020 30.12 849 25.07 27.5 81.4 24 5.6 42.1
14:15 1020 30.12 849 25.07 27.8 82 25 6 42.8
14:20 1020 30.12 849 25.07 27.1 80.8 25 5.5 41.9
14:25 1020 30.12 849 25.07 26.7 80 25 5.2 41.3
14:30 1020 30.12 849 25.07 28 82.4 23 5.4 41.8
14:35 1020 30.12 849 25.07 28.3 83 23 5.3 41.6
14:40 1020 30.12 849 25.07 27.5 81.5 24 5.6 42.1
14:45 1020 30.12 849 25.07 26.3 79.3 26 5.6 42.1
14:50 1020 30.12 849 25.07 26.2 79.1 25 5.2 41.3
14:55 1020 30.12 849 25.07 27.8 82 23 5.1 41.2
15:00 1020 30.12 849 25.07 28.2 82.8 24 5.9 42.6
15:05 1020 30.12 849 25.07 27.3 81.2 25 5.7 42.2
15:10 1020 30.12 849 25.07 27.4 81.3 24 5.3 41.5
15:15 1020 30.12 849 25.07 27.8 82 25 6.1 42.9
15:20 1019 30.09 849 25.07 27.6 81.7 25 5.9 42.7
15:25 1019 30.09 849 25.07 27.5 81.5 24 5.5 41.9
15:30 1019 30.09 849 25.07 28.2 82.8 23 5.7 42.3
15:35 1019 30.09 849 25.07 27.9 82.2 22 4.8 40.7
15:40 1019 30.09 848 25.04 27.8 82.1 23 5.1 41.2
15:45 1019 30.09 848 25.04 27.7 81.9 23 5.2 41.4
15:50 1019 30.09 848 25.04 28 82.4 23 5.3 41.5
15:55 1019 30.09 848 25.04 28.7 83.7 21 4.9 40.8
16:00 1019 30.09 848 25.04 28.5 83.4 23 6 42.8
16:05 1019 30.09 848 25.04 28.4 83.1 21 4.6 40.3
16:10 1019 30.09 848 25.04 28.8 83.9 23 6.1 43
16:15 1019 30.09 848 25.04 28.2 82.7 23 5.5 41.8
16:20 1019 30.09 848 25.04 28.5 83.2 21 4.5 40.1
16:25 1019 30.09 848 25.04 28.7 83.6 23 5.7 42.2
16:30 1019 30.09 848 25.04 28.2 82.7 24 5.8 42.5
16:35 1019 30.09 848 25.04 28.4 83.1 22 4.8 40.7
16:40 1019 30.09 848 25.04 29 84.2 22 5.7 42.2
16:45 1019 30.09 848 25.04 28.9 84 22 5.5 41.9
16:50 1019 30.09 848 25.04 28.7 83.7 22 5.2 41.3
16:55 1019 30.09 848 25.04 29.7 85.4 20 4.8 40.7
17:00 1019 30.09 848 25.04 30.1 86.2 21 5.4 41.7
17:05 1019 30.09 848 25.04 30.1 86.1 21 5.5 41.9
17:10 1019 30.09 848 25.04 29.2 84.5 22 5.5 42
17:15 1019 30.09 848 25.04 29 84.3 22 5.5 41.9
17:20 1018 30.06 848 25.04 28.5 83.2 23 5.5 41.8
17:25 1018 30.06 848 25.04 28.5 83.3 23 5.4 41.7
17:30 1018 30.06 847 25.01 28.7 83.6 24 6.6 43.8
17:35 1018 30.06 847 25.01 29.3 84.8 22 6.1 42.9
17:40 1018 30.06 847 25.01 29.4 84.9 23 6.6 43.8
17:45 1018 30.06 847 25.01 29.1 84.3 22 5.6 42.2
17:50 1018 30.06 847 25.01 29.1 84.4 22 5.7 42.3
17:55 1018 30.06 847 25.01 29.8 85.7 21 5.8 42.5
18:00 1018 30.06 847 25.01 30 86 22 6.3 43.4
18:05 1018 30.06 847 25.01 29.5 85.1 22 5.6 42
18:10 1018 30.06 847 25.01 29.6 85.2 21 5.5 41.9
18:15 1018 30.06 847 25.01 29 84.3 22 5.3 41.6
18:20 1018 30.06 847 25.01 29.2 84.5 21 4.8 40.7
18:25 1018 30.06 847 25.01 29.2 84.6 21 5 41
18:30 1018 30.06 847 25.01 29 84.3 21 4.7 40.5
18:35 1018 30.06 847 25.01 29.1 84.3 21 5.1 41.1
18:40 1018 30.06 847 25.01 29.2 84.6 21 4.8 40.7
18:45 1018 30.06 847 25.01 29 84.2 22 5.6 42.1
18:50 1018 30.06 847 25.01 28.9 83.9 23 5.7 42.3
18:55 1018 30.06 847 25.01 28.9 84 22 5.5 42
19:00 1018 30.06 847 25.01 29 84.1 23 5.8 42.5
19:05 1018 30.06 847 25.01 28.6 83.4 24 6.4 43.5
19:10 1018 30.06 847 25.01 28.5 83.2 24 6.2 43.2
19:15 1018 30.06 847 25.01 28.4 83.1 24 6.3 43.3
19:20 1018 30.06 847 25.01 28.2 82.8 24 6.3 43.3
19:25 1018 30.06 847 25.01 28.4 83.1 24 6.4 43.5
19:30 1018 30.06 847 25.01 28.5 83.3 25 6.9 44.5
19:35 1018 30.06 847 25.01 28 82.4 26 7.1 44.7
19:40 1018 30.06 847 25.01 27.7 81.8 26 7 44.6
19:45 1018 30.06 847 25.01 27.5 81.5 27 7.1 44.9
19:50 1018 30.06 847 25.01 27.4 81.3 28 7.7 45.8
19:55 1018 30.06 847 25.01 27.2 81 30 8.4 47.1
20:00 1018 30.06 847 25.01 27.1 80.7 31 8.6 47.5
20:05 1018 30.06 847 25.01 26.9 80.3 32 9.1 48.3
20:10 1018 30.06 847 25.01 26.6 79.8 32 8.9 48
20:15 1018 30.06 847 25.01 26.3 79.4 32 8.5 47.4
20:20 1018 30.06 847 25.01 26.1 79 32 8.2 46.8
20:25 1018 30.06 847 25.01 25.9 78.7 32 8.3 46.9
20:30 1018 30.06 847 25.01 25.8 78.4 33 8.5 47.3
20:35 1018 30.06 847 25.01 25.6 78 33 8.2 46.8
20:40 1018 30.06 847 25.01 25.5 77.8 33 8.4 47.2
20:45 1018 30.06 847 25.01 25.4 77.7 33 8 46.5
20:50 1018 30.06 847 25.01 25.4 77.7 33 8.3 46.9
20:55 1018 30.06 847 25.01 25.2 77.3 34 8.4 47
21:00 1018 30.06 847 25.01 25 77 34 8.2 46.8
21:05 1018 30.06 847 25.01 24.9 76.9 35 8.5 47.2
21:10 1018 30.06 847 25.01 24.8 76.6 35 8.4 47.2
21:15 1018 30.06 847 25.01 24.8 76.6 35 8.5 47.2
21:20 1018 30.06 847 25.01 24.6 76.3 36 8.8 47.8
21:25 1018 30.06 847 25.01 24.4 75.9 36 8.8 47.8
21:30 1018 30.06 847 25.01 24.4 76 36 8.4 47.2
21:35 1018 30.06 847 25.01 24.4 75.9 35 8.3 46.9
21:40 1018 30.06 847 25.01 24.5 76 35 8.3 46.9
21:45 1018 30.06 847 25.01 24.4 75.9 35 8.3 47
21:50 1018 30.06 847 25.01 24.3 75.7 36 8.6 47.5
21:55 1018 30.06 847 25.01 24 75.3 37 8.6 47.4
22:00 1018 30.06 847 25.01 24 75.1 37 8.6 47.5
22:05 1018 30.06 847 25.01 23.9 75.1 37 8.6 47.5
22:10 1018 30.06 847 25.01 23.8 74.9 37 8.6 47.5
22:15 1018 30.06 847 25.01 23.7 74.7 37 8.5 47.2
22:20 1018 30.06 847 25.01 23.6 74.5 38 8.6 47.5
22:25 1018 30.06 847 25.01 23.6 74.4 38 8.7 47.6
22:30 1018 30.06 847 25.01 23.4 74.1 38 8.5 47.3
22:35 1018 30.06 847 25.01 23.3 74 38 8.6 47.5
22:40 1018 30.06 847 25.01 23.3 73.9 39 8.7 47.7
22:45 1018 30.06 847 25.01 23.2 73.8 39 8.7 47.7
22:50 1018 30.06 847 25.01 23.1 73.6 39 8.6 47.5
22:55 1018 30.06 847 25.01 23 73.4 39 8.4 47.2
23:00 1018 30.06 847 25.01 23 73.3 39 8.6 47.4
23:05 1018 30.06 847 25.01 22.9 73.3 39 8.4 47.2
23:10 1018 30.06 847 25.01 22.8 73.1 39 8.3 47
23:15 1018 30.06 847 25.01 22.8 73.1 38 8.1 46.6
23:20 1018 30.06 847 25.01 23 73.3 37 7.6 45.7
23:25 1018 30.06 847 25.01 23.1 73.7 37 7.9 46.3
23:30 1018 30.06 847 25.01 23 73.4 37 7.9 46.2
23:35 1018 30.06 847 25.01 22.9 73.2 37 7.8 46
23:40 1018 30.06 847 25.01 22.9 73.3 37 7.9 46.1
23:45 1018 30.06 847 25.01 22.8 73.1 37 7.8 46
23:50 1018 30.06 847 25.01 22.8 73 38 7.8 46
23:55 1018 30.06 847 25.01 22.7 72.9 38 8 46.4
24:00 1018 30.06 847 25.01 22.6 72.6 39 8.2 46.7